Time;durP1;ratioP1;P1;durP2;ratioP2;P2;SDS_P1;SDS_P2;PMS_P1;PMS_P2;Temp;Humidity;BMP_temperature;BMP_pressure;BME280_temperature;BME280_humidity;BME280_pressure;Samples;Min_cycle;Max_cycle;Signal;HPM_P1;HPM_P2
2023/12/12 00:00:30;;;;;;;5.60;3.00;;;5.70;99.90;;;;;;5007992;28;20221;-31
2023/12/12 00:03:00;;;;;;;6.30;2.90;;;5.70;99.90;;;;;;5001282;28;20184;-32
2023/12/12 00:05:25;;;;;;;10.30;2.90;;;5.70;99.90;;;;;;4990398;28;20245;-35
2023/12/12 00:07:52;;;;;;;5.87;2.63;;;5.60;99.90;;;;;;5004561;28;20176;-31
2023/12/12 00:10:18;;;;;;;7.43;3.20;;;5.60;99.90;;;;;;4998201;28;20206;-33
2023/12/12 00:12:44;;;;;;;4.87;2.97;;;5.50;99.90;;;;;;4992090;28;20245;-31
2023/12/12 00:15:10;;;;;;;7.67;3.27;;;5.50;99.90;;;;;;4986212;28;20183;-31
2023/12/12 00:17:38;;;;;;;7.03;2.90;;;5.50;99.90;;;;;;4979576;28;20192;-31
2023/12/12 00:20:08;;;;;;;4.33;2.80;;;5.40;99.90;;;;;;4998858;28;20240;-32
2023/12/12 00:22:34;;;;;;;7.77;3.43;;;5.40;99.90;;;;;;5004595;28;20207;-34
2023/12/12 00:24:59;;;;;;;8.70;3.57;;;5.40;99.90;;;;;;4984122;28;20179;-34
2023/12/12 00:27:25;;;;;;;6.00;3.10;;;5.40;99.90;;;;;;4985186;28;20187;-31
2023/12/12 00:29:51;;;;;;;6.80;3.10;;;5.50;99.90;;;;;;4995133;28;20187;-32
2023/12/12 00:32:17;;;;;;;6.63;3.30;;;5.50;99.90;;;;;;4997787;28;20239;-35
2023/12/12 00:34:43;;;;;;;7.13;3.40;;;5.50;99.90;;;;;;4984129;28;20357;-33
2023/12/12 00:37:09;;;;;;;8.57;3.90;;;5.50;99.90;;;;;;4981182;28;20191;-34
2023/12/12 00:39:39;;;;;;;5.50;3.10;;;5.50;99.90;;;;;;4997863;28;20286;-35
2023/12/12 00:42:05;;;;;;;8.17;3.30;;;5.50;99.90;;;;;;4999980;28;20205;-34
2023/12/12 00:44:33;;;;;;;8.97;3.33;;;5.50;99.90;;;;;;4998537;28;20180;-36
2023/12/12 00:46:59;;;;;;;6.83;3.07;;;5.50;99.90;;;;;;5002675;28;20236;-31
2023/12/12 00:49:24;;;;;;;8.40;3.43;;;5.50;99.90;;;;;;5008477;28;20179;-34
2023/12/12 00:51:50;;;;;;;6.43;3.50;;;5.50;99.90;;;;;;5008342;28;20260;-35
2023/12/12 00:54:16;;;;;;;7.27;3.33;;;5.40;99.90;;;;;;5009134;28;20183;-35
2023/12/12 00:56:44;;;;;;;9.30;4.10;;;5.30;99.90;;;;;;5008501;28;20188;-36
2023/12/12 00:59:10;;;;;;;9.80;3.93;;;5.30;99.90;;;;;;5007617;28;20265;-32
2023/12/12 01:01:35;;;;;;;9.40;3.40;;;5.20;99.90;;;;;;5007258;28;20301;-39
2023/12/12 01:04:01;;;;;;;6.43;3.70;;;5.20;99.90;;;;;;4990992;28;20210;-33
2023/12/12 01:06:27;;;;;;;5.03;3.33;;;5.20;99.90;;;;;;5009006;28;20190;-32
2023/12/12 01:08:53;;;;;;;9.90;3.90;;;5.20;99.90;;;;;;5008156;28;20187;-34
2023/12/12 01:11:19;;;;;;;9.27;4.50;;;5.20;99.90;;;;;;5008954;28;20244;-32
2023/12/12 01:13:45;;;;;;;9.93;4.00;;;5.20;99.90;;;;;;5005982;28;20284;-39
2023/12/12 01:16:11;;;;;;;11.00;4.60;;;5.20;99.90;;;;;;4986800;28;20194;-32
2023/12/12 01:18:37;;;;;;;10.50;4.20;;;5.20;99.90;;;;;;4992456;28;20182;-35
2023/12/12 01:21:03;;;;;;;6.93;3.93;;;5.00;99.90;;;;;;4982715;28;20212;-37
2023/12/12 01:23:48;;;;;;;6.80;4.17;;;5.00;99.90;;;;;;4991710;28;20187;-41
2023/12/12 01:26:14;;;;;;;9.87;3.80;;;4.90;99.90;;;;;;5002847;28;20193;-39
2023/12/12 01:28:40;;;;;;;7.73;4.03;;;4.90;99.90;;;;;;4990494;28;20191;-40
2023/12/12 01:31:06;;;;;;;7.73;4.00;;;5.00;99.90;;;;;;5010210;28;20210;-32
2023/12/12 01:33:32;;;;;;;9.57;3.93;;;5.00;99.90;;;;;;4992318;28;20193;-34
2023/12/12 01:35:58;;;;;;;9.60;3.87;;;5.00;99.90;;;;;;4996524;28;20282;-32
2023/12/12 01:38:24;;;;;;;9.33;4.13;;;5.10;99.90;;;;;;4988652;28;20217;-34
2023/12/12 01:40:50;;;;;;;9.07;3.83;;;5.10;99.90;;;;;;5009295;28;20218;-32
2023/12/12 01:43:30;;;;;;;7.43;3.80;;;5.10;99.90;;;;;;5011299;28;20174;-38
2023/12/12 01:45:59;;;;;;;7.30;3.40;;;5.10;99.90;;;;;;5001408;28;20231;-33
2023/12/12 01:48:26;;;;;;;8.10;3.27;;;5.10;99.90;;;;;;4988282;28;20179;-33
2023/12/12 01:50:52;;;;;;;6.20;3.53;;;5.10;99.90;;;;;;4995753;28;20237;-35
2023/12/12 01:53:22;;;;;;;6.37;3.50;;;5.00;99.90;;;;;;4991909;28;20203;-33
2023/12/12 01:55:49;;;;;;;10.23;4.57;;;5.00;99.90;;;;;;5004724;28;20184;-34
2023/12/12 01:58:16;;;;;;;10.53;4.07;;;5.00;99.90;;;;;;5011458;28;20183;-32
2023/12/12 02:00:43;;;;;;;10.37;3.93;;;5.00;99.90;;;;;;5011678;28;20692;-35
2023/12/12 02:03:09;;;;;;;7.53;3.97;;;5.00;99.90;;;;;;4987222;28;20178;-32
2023/12/12 02:05:39;;;;;;;6.43;3.77;;;5.00;99.90;;;;;;5000874;28;20187;-36
2023/12/12 02:08:05;;;;;;;8.30;3.83;;;5.10;99.90;;;;;;5003511;28;20186;-35
2023/12/12 02:10:31;;;;;;;7.00;4.03;;;5.10;99.90;;;;;;5009120;28;20179;-31
2023/12/12 02:12:57;;;;;;;9.03;4.20;;;5.10;99.90;;;;;;4992598;28;20690;-35
2023/12/12 02:15:23;;;;;;;7.40;3.63;;;5.10;99.90;;;;;;5004652;28;20187;-32
2023/12/12 02:17:49;;;;;;;6.17;3.40;;;5.20;99.90;;;;;;5011403;28;20195;-33
2023/12/12 02:20:15;;;;;;;5.43;3.70;;;5.20;99.90;;;;;;4987855;28;20218;-34
2023/12/12 02:22:42;;;;;;;9.80;3.77;;;5.20;99.90;;;;;;5011426;28;20191;-33
2023/12/12 02:25:09;;;;;;;6.70;3.43;;;5.20;99.90;;;;;;4993371;28;20183;-32
2023/12/12 02:27:36;;;;;;;7.70;3.67;;;5.20;99.90;;;;;;4997123;28;20188;-34
2023/12/12 02:30:05;;;;;;;8.10;4.20;;;5.30;99.90;;;;;;5011874;28;20203;-34
2023/12/12 02:32:31;;;;;;;7.37;3.60;;;5.20;99.90;;;;;;4992302;28;20210;-37
2023/12/12 02:34:57;;;;;;;6.00;3.70;;;5.30;99.90;;;;;;4994117;28;20203;-32
2023/12/12 02:37:23;;;;;;;7.43;3.77;;;5.30;99.90;;;;;;5009505;28;20242;-31
2023/12/12 02:39:48;;;;;;;5.03;3.30;;;5.30;99.90;;;;;;5008985;28;20191;-33
2023/12/12 02:42:14;;;;;;;7.53;3.83;;;5.30;99.90;;;;;;4996968;28;20214;-33
2023/12/12 02:44:40;;;;;;;8.37;3.87;;;5.30;99.90;;;;;;4996917;28;20184;-32
2023/12/12 02:47:06;;;;;;;13.13;4.03;;;5.30;99.90;;;;;;4992285;28;20179;-35
2023/12/12 02:49:35;;;;;;;7.43;3.57;;;5.30;99.90;;;;;;5011281;28;20211;-32
2023/12/12 02:52:01;;;;;;;5.23;3.40;;;5.30;99.90;;;;;;5003271;28;20252;-31
2023/12/12 02:54:27;;;;;;;7.07;4.30;;;5.30;99.90;;;;;;4975585;28;20184;-33
2023/12/12 02:56:53;;;;;;;8.40;3.73;;;5.40;99.90;;;;;;5000912;28;20190;-35
2023/12/12 02:59:19;;;;;;;6.40;4.03;;;5.40;99.90;;;;;;4984270;28;20194;-35
2023/12/12 03:01:48;;;;;;;7.03;4.00;;;5.40;99.90;;;;;;4977692;28;20212;-33
2023/12/12 03:04:14;;;;;;;9.13;4.20;;;5.40;99.90;;;;;;4982913;28;20279;-32
2023/12/12 03:06:39;;;;;;;6.90;3.87;;;5.40;99.90;;;;;;4998348;28;20278;-32
2023/12/12 03:09:05;;;;;;;8.70;3.93;;;5.40;99.90;;;;;;5000196;28;20195;-32
2023/12/12 03:11:34;;;;;;;7.47;4.20;;;5.40;99.90;;;;;;4996397;28;20210;-37
2023/12/12 03:14:00;;;;;;;6.60;3.87;;;5.40;99.90;;;;;;5009936;28;20183;-33
2023/12/12 03:16:26;;;;;;;8.07;3.90;;;5.40;99.90;;;;;;5005259;28;20233;-35
2023/12/12 03:18:52;;;;;;;7.23;4.20;;;5.40;99.90;;;;;;4978368;28;20185;-32
2023/12/12 03:21:18;;;;;;;7.30;4.00;;;5.40;99.90;;;;;;4996752;28;20281;-36
2023/12/12 03:23:46;;;;;;;6.53;4.20;;;5.50;99.90;;;;;;4990485;28;20188;-33
2023/12/12 03:26:12;;;;;;;9.20;3.90;;;5.50;99.90;;;;;;4974793;28;20192;-32
2023/12/12 03:28:39;;;;;;;8.20;3.73;;;5.50;99.90;;;;;;4981703;28;20180;-32
2023/12/12 03:31:05;;;;;;;9.33;3.67;;;5.40;99.90;;;;;;4998896;28;20210;-32
2023/12/12 03:33:31;;;;;;;6.93;3.67;;;5.40;99.90;;;;;;5001098;28;20211;-32
2023/12/12 03:35:56;;;;;;;5.73;3.73;;;5.40;99.90;;;;;;5000856;28;20193;-35
2023/12/12 03:38:22;;;;;;;5.87;3.20;;;5.40;99.90;;;;;;5001279;28;20198;-33
2023/12/12 03:40:48;;;;;;;4.87;3.23;;;5.40;99.90;;;;;;4981468;28;20230;-34
2023/12/12 03:43:14;;;;;;;5.40;3.50;;;5.40;99.90;;;;;;4975090;28;20271;-34
2023/12/12 03:45:40;;;;;;;8.20;3.57;;;5.40;99.90;;;;;;4991458;28;20209;-33
2023/12/12 03:48:06;;;;;;;7.53;3.60;;;5.30;99.90;;;;;;4980643;28;20212;-35
2023/12/12 03:50:32;;;;;;;8.00;3.53;;;5.30;99.90;;;;;;5003039;28;20279;-31
2023/12/12 03:52:58;;;;;;;5.03;3.03;;;5.20;99.90;;;;;;4974351;28;20267;-32
2023/12/12 03:55:24;;;;;;;5.63;3.10;;;5.20;99.90;;;;;;4981720;28;20187;-32
2023/12/12 03:57:49;;;;;;;5.73;3.10;;;5.20;99.90;;;;;;4974692;28;20275;-38
2023/12/12 04:00:15;;;;;;;6.80;3.60;;;5.20;99.90;;;;;;4991406;28;20239;-32
2023/12/12 04:02:41;;;;;;;7.43;3.50;;;5.20;99.90;;;;;;4972577;28;20184;-38
2023/12/12 04:05:11;;;;;;;8.23;3.47;;;5.20;99.90;;;;;;4972411;28;20208;-35
2023/12/12 04:07:37;;;;;;;7.50;4.30;;;5.20;99.90;;;;;;4990184;28;20332;-32
2023/12/12 04:10:06;;;;;;;4.27;3.13;;;5.10;99.90;;;;;;5001183;28;20190;-32
2023/12/12 04:12:34;;;;;;;6.80;3.00;;;5.10;99.90;;;;;;4992274;28;20230;-35
2023/12/12 04:15:00;;;;;;;6.23;3.07;;;5.10;99.90;;;;;;5005036;28;20807;-34
2023/12/12 04:17:25;;;;;;;5.53;3.13;;;5.10;99.90;;;;;;4994039;28;20192;-32
2023/12/12 04:19:51;;;;;;;8.17;3.17;;;5.10;99.90;;;;;;4998063;28;20190;-35
2023/12/12 04:22:17;;;;;;;7.50;3.33;;;5.10;99.90;;;;;;4994184;28;20202;-36
2023/12/12 04:24:43;;;;;;;7.17;3.03;;;5.00;99.90;;;;;;4990756;28;20180;-32
2023/12/12 04:27:09;;;;;;;4.93;3.07;;;5.00;99.90;;;;;;4977064;28;20193;-35
2023/12/12 04:29:35;;;;;;;3.93;2.73;;;5.00;99.90;;;;;;5009428;28;20197;-35
2023/12/12 04:32:00;;;;;;;5.27;3.03;;;5.00;99.90;;;;;;4990604;28;20211;-34
2023/12/12 04:34:30;;;;;;;5.73;2.70;;;5.00;99.90;;;;;;4975330;28;20306;-34
2023/12/12 04:36:55;;;;;;;6.27;3.00;;;5.00;99.90;;;;;;4997876;28;20199;-37
2023/12/12 04:39:21;;;;;;;5.67;3.67;;;5.00;99.90;;;;;;4974200;28;20175;-33
2023/12/12 04:41:47;;;;;;;8.73;3.63;;;4.90;99.90;;;;;;4985521;28;20214;-36
2023/12/12 04:44:13;;;;;;;6.07;3.50;;;4.90;99.90;;;;;;4988541;28;20184;-33
2023/12/12 04:46:39;;;;;;;5.57;3.43;;;4.90;99.90;;;;;;5000518;28;20187;-34
2023/12/12 04:49:05;;;;;;;8.57;3.23;;;4.90;99.90;;;;;;4973983;28;20644;-33
2023/12/12 04:51:30;;;;;;;4.60;3.20;;;4.90;99.90;;;;;;4991264;28;20214;-34
2023/12/12 04:53:56;;;;;;;5.63;3.27;;;4.90;99.90;;;;;;4978332;28;20209;-32
2023/12/12 04:56:22;;;;;;;9.03;3.53;;;5.00;99.90;;;;;;4993084;28;20179;-41
2023/12/12 04:58:48;;;;;;;6.57;3.77;;;5.00;99.90;;;;;;4985783;28;20192;-33
2023/12/12 05:01:18;;;;;;;7.50;3.37;;;5.00;99.90;;;;;;5004578;28;20208;-33
2023/12/12 05:03:47;;;;;;;6.57;3.47;;;5.00;99.90;;;;;;4990874;28;20275;-36
2023/12/12 05:06:13;;;;;;;6.63;3.53;;;5.00;99.90;;;;;;4989611;28;20229;-32
2023/12/12 05:08:41;;;;;;;6.33;3.63;;;5.00;99.90;;;;;;4980115;28;20254;-32
2023/12/12 05:11:08;;;;;;;9.43;5.07;;;5.00;99.90;;;;;;5003519;28;20215;-33
2023/12/12 05:13:33;;;;;;;7.37;3.97;;;5.00;99.90;;;;;;4974578;28;20191;-35
2023/12/12 05:15:59;;;;;;;10.07;3.87;;;5.00;99.90;;;;;;4988774;28;20275;-35
2023/12/12 05:18:25;;;;;;;8.17;3.70;;;4.80;99.90;;;;;;4990225;28;20198;-36
2023/12/12 05:20:51;;;;;;;5.37;3.70;;;4.80;99.90;;;;;;5005108;28;20304;-33
2023/12/12 05:23:17;;;;;;;5.13;3.27;;;4.80;99.90;;;;;;4988185;28;20250;-36
2023/12/12 05:25:42;;;;;;;5.80;3.93;;;4.80;99.90;;;;;;4984902;28;20184;-34
2023/12/12 05:28:08;;;;;;;4.53;3.50;;;4.80;99.90;;;;;;5001538;28;20256;-32
2023/12/12 05:30:34;;;;;;;5.53;3.33;;;4.70;99.90;;;;;;4977165;28;20221;-35
2023/12/12 05:33:00;;;;;;;3.93;3.00;;;4.70;99.90;;;;;;5001152;28;20209;-36
2023/12/12 05:35:26;;;;;;;6.00;3.63;;;4.70;99.90;;;;;;4976767;28;20188;-34
2023/12/12 05:37:52;;;;;;;8.63;3.70;;;4.70;99.90;;;;;;4984608;28;20246;-38
2023/12/12 05:40:18;;;;;;;4.83;3.43;;;4.70;99.90;;;;;;4977345;28;20219;-32
2023/12/12 05:42:43;;;;;;;4.40;3.47;;;4.70;99.90;;;;;;4979484;28;20255;-32
2023/12/12 05:45:10;;;;;;;5.73;3.33;;;4.70;99.90;;;;;;4983773;28;20181;-34
2023/12/12 05:47:36;;;;;;;4.70;3.13;;;4.70;99.90;;;;;;5005736;28;20182;-32
2023/12/12 05:50:02;;;;;;;5.23;3.07;;;4.70;99.90;;;;;;4993848;28;20199;-32
2023/12/12 05:52:28;;;;;;;7.30;3.30;;;4.70;99.90;;;;;;4985249;28;20215;-32
2023/12/12 05:54:54;;;;;;;4.87;3.40;;;4.70;99.90;;;;;;4993499;28;20299;-36
2023/12/12 05:57:20;;;;;;;6.37;3.20;;;4.70;99.90;;;;;;4983196;28;20203;-35
2023/12/12 05:59:47;;;;;;;5.53;3.30;;;4.70;99.90;;;;;;5006744;28;20191;-34
2023/12/12 06:02:13;;;;;;;6.23;3.30;;;4.70;99.90;;;;;;5002408;28;20205;-35
2023/12/12 06:04:39;;;;;;;5.83;3.70;;;4.70;99.90;;;;;;5009739;28;20234;-33
2023/12/12 06:07:05;;;;;;;6.67;4.20;;;4.80;99.90;;;;;;4990452;28;20198;-35
2023/12/12 06:09:32;;;;;;;8.50;4.30;;;4.80;99.90;;;;;;5004112;28;20197;-33
2023/12/12 06:12:00;;;;;;;7.37;4.10;;;4.80;99.90;;;;;;4980392;28;20218;-35
2023/12/12 06:14:27;;;;;;;7.30;4.57;;;4.70;99.90;;;;;;4989058;28;20240;-36
2023/12/12 06:16:53;;;;;;;7.73;4.13;;;4.70;99.90;;;;;;5001549;28;20190;-39
2023/12/12 06:19:18;;;;;;;9.57;4.23;;;4.60;99.90;;;;;;5001523;28;20187;-35
2023/12/12 06:21:46;;;;;;;6.77;4.10;;;4.60;99.90;;;;;;4991452;28;20226;-34
2023/12/12 06:24:12;;;;;;;6.87;4.20;;;4.60;99.90;;;;;;5001738;28;20179;-35
2023/12/12 06:26:38;;;;;;;8.57;4.10;;;4.50;99.90;;;;;;4975764;28;20186;-35
2023/12/12 06:29:07;;;;;;;7.43;4.10;;;4.50;99.90;;;;;;4975183;28;20183;-33
2023/12/12 06:31:33;;;;;;;6.73;4.00;;;4.50;99.90;;;;;;4986605;28;20207;-31
2023/12/12 06:33:59;;;;;;;5.27;3.87;;;4.50;99.90;;;;;;5005565;28;20198;-32
2023/12/12 06:36:25;;;;;;;5.33;4.10;;;4.50;99.90;;;;;;4993199;28;20190;-38
2023/12/12 06:38:50;;;;;;;5.83;3.80;;;4.60;99.90;;;;;;4984142;28;20190;-36
2023/12/12 06:41:16;;;;;;;7.33;4.60;;;4.60;99.90;;;;;;4992952;28;20218;-33
2023/12/12 06:43:45;;;;;;;6.93;4.33;;;4.70;99.90;;;;;;5009365;28;20332;-33
2023/12/12 06:46:11;;;;;;;7.47;4.47;;;4.70;99.90;;;;;;5010432;28;20189;-32
2023/12/12 06:48:38;;;;;;;7.20;4.50;;;4.70;99.90;;;;;;4982428;28;20187;-34
2023/12/12 06:51:09;;;;;;;9.37;4.43;;;4.80;99.90;;;;;;5001300;28;20218;-35
2023/12/12 06:53:36;;;;;;;7.17;4.67;;;4.80;99.90;;;;;;4993464;28;20229;-32
2023/12/12 06:56:02;;;;;;;11.00;4.73;;;4.80;99.90;;;;;;4986156;28;20197;-39
2023/12/12 06:58:28;;;;;;;6.23;4.30;;;4.90;99.90;;;;;;4987260;28;20200;-39
2023/12/12 07:00:55;;;;;;;10.63;4.60;;;4.90;99.90;;;;;;4987102;28;20222;-41
2023/12/12 07:03:21;;;;;;;7.07;4.87;;;4.90;99.90;;;;;;4991953;28;20195;-39
2023/12/12 07:05:51;;;;;;;8.83;4.63;;;5.00;99.90;;;;;;4983446;28;20191;-41
2023/12/12 07:08:18;;;;;;;7.30;5.10;;;5.00;99.90;;;;;;4967896;28;20226;-41
2023/12/12 07:10:48;;;;;;;9.63;5.10;;;4.90;99.90;;;;;;4991351;28;20218;-41
2023/12/12 07:13:14;;;;;;;6.70;4.77;;;4.90;99.90;;;;;;4991413;28;20184;-36
2023/12/12 07:15:41;;;;;;;6.80;4.90;;;5.00;99.90;;;;;;5008165;28;20199;-40
2023/12/12 07:18:12;;;;;;;8.70;5.97;;;5.00;99.90;;;;;;4992841;28;20214;-40
2023/12/12 07:20:38;;;;;;;7.33;5.20;;;5.00;99.90;;;;;;5010586;28;20229;-40
2023/12/12 07:23:04;;;;;;;9.10;6.10;;;5.00;99.90;;;;;;5009051;28;20190;-40
2023/12/12 07:25:31;;;;;;;10.27;6.00;;;5.00;99.90;;;;;;4999348;28;20266;-40
2023/12/12 07:27:57;;;;;;;8.63;5.40;;;5.00;99.90;;;;;;4978464;28;20207;-39
2023/12/12 07:30:27;;;;;;;11.17;5.67;;;5.00;99.90;;;;;;4986835;28;20276;-41
2023/12/12 07:32:55;;;;;;;6.67;4.90;;;5.00;99.90;;;;;;4990515;28;21257;-41
2023/12/12 07:35:25;;;;;;;7.73;5.23;;;5.00;99.90;;;;;;4990546;28;20206;-38
2023/12/12 07:37:51;;;;;;;8.70;5.20;;;5.00;99.90;;;;;;4991116;28;20191;-40
2023/12/12 07:40:18;;;;;;;9.70;5.47;;;5.00;99.90;;;;;;4993615;28;20220;-40
2023/12/12 07:42:45;;;;;;;8.80;5.47;;;5.10;99.90;;;;;;5004896;28;20183;-39
2023/12/12 07:45:11;;;;;;;9.50;4.90;;;5.10;99.90;;;;;;5014459;28;20217;-38
2023/12/12 07:47:37;;;;;;;9.13;4.80;;;5.10;99.90;;;;;;4996385;28;20202;-33
2023/12/12 07:50:08;;;;;;;8.60;5.23;;;5.10;99.90;;;;;;4998433;28;20218;-32
2023/12/12 07:52:34;;;;;;;9.07;5.40;;;5.20;99.90;;;;;;4997831;28;20214;-36
2023/12/12 07:55:00;;;;;;;8.80;5.60;;;5.20;99.90;;;;;;4979636;28;20195;-32
2023/12/12 07:57:27;;;;;;;12.53;7.13;;;5.20;99.90;;;;;;4995129;28;20183;-34
2023/12/12 07:59:53;;;;;;;10.27;5.73;;;5.20;99.90;;;;;;5009916;28;20232;-35
2023/12/12 08:02:21;;;;;;;11.43;6.80;;;5.20;99.90;;;;;;4997492;28;20203;-32
2023/12/12 08:04:52;;;;;;;10.77;6.67;;;5.20;99.90;;;;;;4990222;28;20177;-35
2023/12/12 08:07:21;;;;;;;9.97;6.00;;;5.20;99.90;;;;;;5006739;28;20176;-34
2023/12/12 08:09:47;;;;;;;10.77;6.00;;;5.20;99.90;;;;;;4990398;28;20183;-33
2023/12/12 08:12:13;;;;;;;10.50;6.27;;;5.20;99.90;;;;;;4992335;28;20218;-39
2023/12/12 08:14:42;;;;;;;13.37;6.33;;;5.20;99.90;;;;;;4996556;28;20281;-41
2023/12/12 08:17:09;;;;;;;11.63;6.47;;;5.20;99.90;;;;;;4977339;28;20194;-41
2023/12/12 08:19:38;;;;;;;13.07;6.23;;;5.20;99.90;;;;;;4979415;28;20184;-38
2023/12/12 08:22:04;;;;;;;9.90;6.87;;;5.30;99.90;;;;;;4989808;28;20236;-40
2023/12/12 08:24:30;;;;;;;12.90;8.20;;;5.30;99.90;;;;;;4982091;28;20238;-41
2023/12/12 08:26:56;;;;;;;11.73;8.10;;;5.30;99.90;;;;;;4973001;28;20188;-41
2023/12/12 08:29:25;;;;;;;16.33;9.73;;;5.30;99.90;;;;;;5001774;28;20178;-41
2023/12/12 08:31:53;;;;;;;15.27;8.63;;;5.40;99.90;;;;;;4977331;28;20210;-39
2023/12/12 08:34:21;;;;;;;19.13;9.37;;;5.40;99.90;;;;;;5015857;23;20317;-32
2023/12/12 08:36:48;;;;;;;13.83;7.97;;;5.40;99.90;;;;;;4996382;28;20224;-34
2023/12/12 08:39:15;;;;;;;13.07;7.30;;;5.40;99.90;;;;;;4989864;28;20247;-31
2023/12/12 08:41:40;;;;;;;13.17;7.33;;;5.50;99.90;;;;;;4988889;28;20706;-32
2023/12/12 08:44:06;;;;;;;9.53;6.00;;;5.50;99.90;;;;;;4995735;28;20207;-31
2023/12/12 08:46:34;;;;;;;11.57;6.40;;;5.50;99.90;;;;;;4985549;28;20294;-32
2023/12/12 08:49:01;;;;;;;7.67;5.50;;;5.50;99.90;;;;;;5005524;28;20281;-31
2023/12/12 08:51:28;;;;;;;11.00;6.10;;;5.50;99.90;;;;;;5007763;28;20268;-31
2023/12/12 08:53:55;;;;;;;8.43;5.77;;;5.60;99.90;;;;;;4984414;28;20214;-31
2023/12/12 08:56:21;;;;;;;14.97;7.53;;;5.60;99.90;;;;;;5006723;28;20208;-31
2023/12/12 08:58:49;;;;;;;12.80;7.20;;;5.60;99.90;;;;;;5004357;28;20179;-31
2023/12/12 09:01:16;;;;;;;11.20;6.93;;;5.60;99.90;;;;;;5007995;28;20222;-33
2023/12/12 09:03:42;;;;;;;9.43;7.23;;;5.60;99.90;;;;;;5008978;28;20346;-31
2023/12/12 09:06:09;;;;;;;10.17;6.50;;;5.60;99.90;;;;;;5008272;28;20191;-31
2023/12/12 09:08:36;;;;;;;8.83;5.30;;;5.60;99.90;;;;;;5008896;28;20180;-32
2023/12/12 09:11:02;;;;;;;7.30;4.80;;;5.60;99.90;;;;;;5008407;28;20198;-31
2023/12/12 09:13:28;;;;;;;9.47;4.73;;;5.50;99.90;;;;;;5006322;28;20257;-31
2023/12/12 09:15:55;;;;;;;8.80;5.20;;;5.60;99.90;;;;;;5008600;28;20289;-31
2023/12/12 09:18:21;;;;;;;6.90;5.30;;;5.50;99.90;;;;;;5007863;28;20187;-31
2023/12/12 09:20:48;;;;;;;6.83;4.93;;;5.50;99.90;;;;;;4985935;28;20222;-31
2023/12/12 09:23:15;;;;;;;7.23;5.13;;;5.50;99.90;;;;;;5007533;28;20202;-30
2023/12/12 09:25:43;;;;;;;9.53;5.97;;;5.50;99.90;;;;;;5002541;28;20190;-30
2023/12/12 09:28:09;;;;;;;11.80;6.97;;;5.50;99.90;;;;;;4973416;28;20194;-31
2023/12/12 09:30:35;;;;;;;9.57;5.90;;;5.50;99.90;;;;;;5008141;28;20187;-31
2023/12/12 09:33:01;;;;;;;8.17;5.80;;;5.50;99.90;;;;;;4992116;28;20486;-31
2023/12/12 09:35:27;;;;;;;8.23;5.53;;;5.50;99.90;;;;;;5021314;28;20192;-33
2023/12/12 09:37:53;;;;;;;9.47;5.60;;;5.60;99.90;;;;;;5003644;28;20233;-31
2023/12/12 09:40:20;;;;;;;9.47;5.47;;;5.60;99.90;;;;;;5007268;28;20260;-31
2023/12/12 09:42:49;;;;;;;7.93;5.30;;;5.60;99.90;;;;;;5008870;28;20214;-31
2023/12/12 09:45:16;;;;;;;6.80;4.93;;;5.60;99.90;;;;;;5007796;28;20278;-31
2023/12/12 09:47:44;;;;;;;9.47;6.73;;;5.60;99.90;;;;;;4988289;28;20202;-31
2023/12/12 09:50:10;;;;;;;9.97;6.53;;;5.60;99.90;;;;;;4988642;28;20191;-30
2023/12/12 09:52:37;;;;;;;9.67;6.97;;;5.70;99.90;;;;;;4983636;28;20183;-30
2023/12/12 09:55:06;;;;;;;10.43;7.33;;;5.70;99.90;;;;;;5009661;28;20203;-32
2023/12/12 09:57:34;;;;;;;11.20;7.63;;;5.70;99.90;;;;;;5008179;28;20222;-31
2023/12/12 10:00:03;;;;;;;15.40;9.63;;;5.70;99.90;;;;;;5005603;28;20190;-31
2023/12/12 10:02:37;;;;;;;14.83;10.47;;;5.70;99.90;;;;;;5005344;28;20179;-32
2023/12/12 10:05:09;;;;;;;15.83;11.70;;;5.80;99.90;;;;;;4987703;28;20237;-31
2023/12/12 10:07:36;;;;;;;14.77;10.77;;;5.80;99.90;;;;;;4994523;28;20226;-32
2023/12/12 10:10:05;;;;;;;13.13;9.47;;;5.80;99.90;;;;;;5007383;28;20179;-32
2023/12/12 10:12:31;;;;;;;12.80;9.63;;;5.80;99.90;;;;;;5010069;28;20203;-32
2023/12/12 10:14:58;;;;;;;12.73;9.13;;;5.80;99.90;;;;;;4994894;28;20199;-31
2023/12/12 10:17:25;;;;;;;11.30;8.07;;;5.80;99.90;;;;;;5001607;28;20207;-31
2023/12/12 10:20:04;;;;;;;14.00;8.97;;;5.80;99.90;;;;;;4991751;28;20637;-31
2023/12/12 10:22:31;;;;;;;12.07;8.67;;;5.80;99.90;;;;;;4987498;28;20651;-31
2023/12/12 10:25:10;;;;;;;9.70;8.10;;;5.80;99.90;;;;;;4987591;28;20200;-32
2023/12/12 10:27:39;;;;;;;11.30;7.57;;;5.80;99.90;;;;;;5003601;28;20182;-31
2023/12/12 10:30:06;;;;;;;12.00;7.27;;;5.80;99.90;;;;;;5011437;28;20183;-31
2023/12/12 10:32:35;;;;;;;12.13;9.47;;;5.80;99.90;;;;;;5011961;28;20197;-30
2023/12/12 10:35:02;;;;;;;10.47;8.03;;;5.80;99.90;;;;;;5027398;28;20211;-32
2023/12/12 10:37:28;;;;;;;9.80;7.90;;;5.80;99.90;;;;;;5004682;28;20207;-31
2023/12/12 10:39:54;;;;;;;11.03;7.67;;;5.80;99.90;;;;;;5011568;28;20229;-31
2023/12/12 10:42:21;;;;;;;10.73;7.57;;;5.90;99.90;;;;;;5010644;28;20202;-31
2023/12/12 10:44:52;;;;;;;11.10;7.60;;;5.90;99.90;;;;;;5009965;28;20206;-31
2023/12/12 10:47:19;;;;;;;10.57;6.87;;;5.90;99.90;;;;;;4987774;28;20183;-30
2023/12/12 10:49:48;;;;;;;9.67;7.20;;;5.90;99.90;;;;;;5008913;28;20267;-31
2023/12/12 10:52:15;;;;;;;10.63;6.93;;;5.90;99.90;;;;;;5010037;28;20232;-31
2023/12/12 10:54:43;;;;;;;8.13;6.60;;;6.00;99.90;;;;;;5010151;28;20207;-31
2023/12/12 10:57:11;;;;;;;9.37;5.90;;;6.00;99.90;;;;;;5007168;28;20335;-31
2023/12/12 10:59:39;;;;;;;7.60;5.37;;;6.10;99.90;;;;;;5010883;28;20203;-31
2023/12/12 11:02:15;;;;;;;6.27;5.30;;;6.10;99.90;;;;;;5009915;28;20600;-33
2023/12/12 11:04:44;;;;;;;7.80;5.23;;;6.20;99.90;;;;;;5002700;28;20290;-33
2023/12/12 11:07:11;;;;;;;10.23;5.53;;;6.30;99.90;;;;;;4989588;28;20269;-33
2023/12/12 11:09:38;;;;;;;7.93;5.20;;;6.30;99.90;;;;;;5011071;28;20176;-34
2023/12/12 11:12:05;;;;;;;5.80;4.43;;;6.30;99.90;;;;;;5008650;28;20273;-32
2023/12/12 11:14:37;;;;;;;8.27;5.07;;;6.40;99.90;;;;;;5010444;28;20199;-35
2023/12/12 11:17:07;;;;;;;10.20;7.57;;;6.40;99.90;;;;;;5001959;28;20199;-32
2023/12/12 11:19:36;;;;;;;10.93;7.00;;;6.40;99.90;;;;;;5009005;28;20187;-33
2023/12/12 11:22:03;;;;;;;12.20;8.80;;;6.50;99.90;;;;;;5010024;28;20226;-32
2023/12/12 11:25:08;;;;;;;24.07;17.50;;;6.50;99.90;;;;;;5010580;28;20199;-33
2023/12/12 11:27:39;;;;;;;17.67;13.47;;;6.50;99.90;;;;;;5011900;28;20191;-34
2023/12/12 11:30:07;;;;;;;16.90;11.80;;;6.50;99.90;;;;;;5006277;28;20195;-35
2023/12/12 11:32:35;;;;;;;12.20;10.40;;;6.50;99.90;;;;;;5004801;28;20202;-34
2023/12/12 11:35:07;;;;;;;12.03;9.23;;;6.50;99.90;;;;;;4991071;28;20242;-32
2023/12/12 11:37:59;;;;;;;12.43;9.47;;;6.50;99.90;;;;;;4990315;28;20179;-32
2023/12/12 11:40:27;;;;;;;14.10;10.17;;;6.50;99.90;;;;;;5002383;28;20349;-33
2023/12/12 11:43:14;;;;;;;15.70;9.40;;;6.50;99.90;;;;;;5010345;28;20184;-33
2023/12/12 11:45:40;;;;;;;9.70;8.07;;;6.50;99.90;;;;;;4989730;28;20199;-32
2023/12/12 11:48:08;;;;;;;12.67;8.13;;;6.50;99.90;;;;;;5007093;28;20197;-33
2023/12/12 11:50:34;;;;;;;11.13;7.83;;;6.50;99.90;;;;;;5010610;28;20183;-35
2023/12/12 11:53:03;;;;;;;12.67;7.50;;;6.50;99.90;;;;;;5004461;28;20199;-34
2023/12/12 11:55:36;;;;;;;10.67;6.83;;;6.60;99.90;;;;;;4990126;28;20184;-32
2023/12/12 11:58:06;;;;;;;10.13;6.60;;;6.60;99.90;;;;;;4985048;28;20218;-33
2023/12/12 12:00:40;;;;;;;10.80;5.93;;;6.60;99.90;;;;;;5001498;28;20203;-34
2023/12/12 12:03:09;;;;;;;10.67;6.77;;;6.60;99.90;;;;;;5009265;28;20183;-33
2023/12/12 12:05:36;;;;;;;9.77;6.53;;;6.60;99.90;;;;;;5008809;28;20246;-32
2023/12/12 12:08:02;;;;;;;9.13;6.33;;;6.60;99.90;;;;;;5008756;28;20186;-33
2023/12/12 12:10:29;;;;;;;9.77;7.63;;;6.70;99.90;;;;;;5009417;28;20187;-32
2023/12/12 12:12:57;;;;;;;12.60;7.43;;;6.70;99.90;;;;;;5008506;28;20190;-31
2023/12/12 12:15:24;;;;;;;8.60;6.43;;;6.70;99.90;;;;;;5009032;28;20206;-33
2023/12/12 12:17:50;;;;;;;9.73;6.30;;;6.70;99.90;;;;;;5009140;28;20202;-33
2023/12/12 12:20:16;;;;;;;7.77;6.47;;;6.70;99.90;;;;;;5009549;28;20191;-33
2023/12/12 12:22:43;;;;;;;8.50;6.63;;;6.70;99.90;;;;;;4989917;28;20333;-33
2023/12/12 12:25:10;;;;;;;7.97;6.07;;;6.70;99.90;;;;;;5013145;28;20204;-36
2023/12/12 12:27:52;;;;;;;8.97;6.30;;;6.70;99.90;;;;;;5007719;28;20179;-35
2023/12/12 12:30:19;;;;;;;9.07;6.87;;;6.80;99.90;;;;;;4993250;28;20186;-35
2023/12/12 12:33:01;;;;;;;10.20;6.83;;;6.80;99.90;;;;;;4994024;28;20191;-36
2023/12/12 12:35:29;;;;;;;8.63;6.37;;;6.80;99.90;;;;;;4991862;28;20219;-34
2023/12/12 12:37:56;;;;;;;10.33;7.20;;;6.90;99.90;;;;;;4980940;28;20180;-34
2023/12/12 12:40:37;;;;;;;8.93;6.30;;;6.90;99.90;;;;;;4991105;28;20285;-34
2023/12/12 12:43:17;;;;;;;7.53;5.90;;;6.90;99.90;;;;;;5009574;28;20186;-32
2023/12/12 12:45:45;;;;;;;17.00;9.80;;;6.90;99.90;;;;;;4989368;28;20237;-33
2023/12/12 12:48:11;;;;;;;13.30;10.23;;;6.90;99.90;;;;;;5006069;28;20195;-33
2023/12/12 12:50:45;;;;;;;13.50;9.40;;;6.90;99.90;;;;;;5009124;28;20183;-31
2023/12/12 12:53:11;;;;;;;9.77;8.60;;;6.90;99.90;;;;;;5007739;28;20249;-32